createdAt,value
2019-01-19T00:03:03.411Z,40.40
2019-01-19T00:05:29.992Z,40.30
2019-01-19T00:07:56.562Z,40.30
2019-01-19T00:10:23.200Z,40.40
2019-01-19T00:12:49.773Z,40.30
2019-01-19T00:15:16.345Z,40.30
2019-01-19T00:17:42.971Z,40.40
2019-01-19T00:20:09.550Z,40.40
2019-01-19T00:22:36.125Z,40.30
2019-01-19T00:25:02.756Z,40.30
2019-01-19T00:27:29.333Z,40.30
2019-01-19T00:29:55.914Z,40.30
2019-01-19T00:32:22.598Z,40.30
2019-01-19T00:34:49.182Z,40.30
2019-01-19T00:37:15.784Z,40.30
2019-01-19T00:39:42.409Z,40.30
2019-01-19T00:42:08.992Z,40.30
2019-01-19T00:44:35.575Z,40.30
2019-01-19T00:47:02.227Z,40.20
2019-01-19T00:49:28.817Z,40.20
2019-01-19T00:51:55.442Z,40.30
2019-01-19T00:54:22.149Z,40.20
2019-01-19T00:56:48.733Z,40.30
2019-01-19T00:59:15.370Z,40.30
2019-01-19T01:01:42.226Z,40.30
2019-01-19T01:04:08.803Z,40.30
2019-01-19T01:06:35.429Z,40.30
2019-01-19T01:09:02.180Z,40.30
2019-01-19T01:11:28.764Z,40.20
2019-01-19T01:13:55.344Z,40.30
2019-01-19T01:16:22.024Z,40.20
2019-01-19T01:18:48.603Z,40.30
2019-01-19T01:21:15.212Z,40.20
2019-01-19T01:23:41.835Z,40.20
2019-01-19T01:26:08.427Z,40.20
2019-01-19T01:28:35.014Z,40.20
2019-01-19T01:31:02.216Z,40.20
2019-01-19T01:33:28.798Z,40.20
2019-01-19T01:35:55.375Z,40.20
2019-01-19T01:38:22.052Z,40.20
2019-01-19T01:40:48.670Z,40.20
2019-01-19T01:43:15.232Z,40.20
2019-01-19T01:45:41.856Z,40.20
2019-01-19T01:48:08.526Z,40.20
2019-01-19T01:50:35.111Z,40.20
2019-01-19T01:53:01.720Z,40.20
2019-01-19T01:55:28.303Z,40.10
2019-01-19T01:57:54.880Z,40.20
2019-01-19T02:00:21.815Z,40.20
2019-01-19T02:02:48.394Z,40.20
2019-01-19T02:05:14.963Z,40.20
2019-01-19T02:07:41.621Z,40.20
2019-01-19T02:10:08.196Z,40.20
2019-01-19T02:12:34.792Z,40.20
2019-01-19T02:15:01.412Z,40.20
2019-01-19T02:17:27.980Z,40.10
2019-01-19T02:19:54.558Z,40.20
2019-01-19T02:22:21.214Z,40.10
2019-01-19T02:24:47.836Z,40.10
2019-01-19T02:27:14.413Z,40.10
2019-01-19T02:29:41.020Z,40.10
2019-01-19T02:34:53.196Z,40.10
2019-01-19T02:37:19.816Z,40.10
2019-01-19T02:39:46.390Z,40.10
2019-01-19T02:42:13.037Z,40.10
2019-01-19T02:44:39.632Z,40.10
2019-01-19T02:47:06.209Z,40.10
2019-01-19T02:49:32.835Z,40.10
2019-01-19T02:51:59.435Z,40.10
2019-01-19T02:54:26.014Z,40.10
2019-01-19T02:56:52.639Z,40.10
2019-01-19T02:59:19.217Z,40.10
2019-01-19T03:01:45.817Z,40.10
2019-01-19T03:04:12.622Z,40.10
2019-01-19T03:06:39.268Z,40.10
2019-01-19T03:09:05.838Z,40.10
2019-01-19T03:11:32.461Z,40.10
2019-01-19T03:13:59.040Z,40.00
2019-01-19T03:16:25.614Z,40.10
2019-01-19T03:18:52.361Z,40.10
2019-01-19T03:21:18.946Z,40.10
2019-01-19T03:23:45.622Z,40.10
2019-01-19T03:26:12.275Z,40.10
2019-01-19T03:28:38.843Z,40.10
2019-01-19T03:31:05.445Z,40.10
2019-01-19T03:33:32.122Z,40.10
2019-01-19T03:36:04.294Z,40.10
2019-01-19T03:38:27.011Z,40.10
2019-01-19T03:40:53.671Z,40.10
2019-01-19T03:43:20.254Z,40.10
2019-01-19T03:45:46.830Z,40.00
2019-01-19T03:48:13.488Z,40.10
2019-01-19T03:50:40.115Z,40.00
2019-01-19T03:53:06.713Z,40.00
2019-01-19T03:55:33.336Z,40.00
2019-01-19T03:57:59.922Z,40.00
2019-01-19T04:00:26.498Z,40.00
2019-01-19T04:02:53.141Z,40.00
2019-01-19T04:05:19.774Z,40.00
2019-01-19T04:07:46.358Z,40.00
2019-01-19T04:10:13.011Z,40.00
2019-01-19T04:12:39.606Z,40.00
2019-01-19T04:15:06.183Z,40.00
2019-01-19T04:17:32.812Z,40.00
2019-01-19T04:19:59.384Z,40.00
2019-01-19T04:22:25.969Z,40.00
2019-01-19T04:24:52.606Z,40.00
2019-01-19T04:27:19.199Z,40.00
2019-01-19T04:29:45.779Z,40.00
2019-01-19T04:32:12.529Z,40.00
2019-01-19T04:34:39.108Z,40.00
2019-01-19T04:39:51.186Z,40.00
2019-01-19T04:42:17.760Z,40.00
2019-01-19T04:44:44.333Z,40.00
2019-01-19T04:47:10.972Z,40.00
2019-01-19T04:49:37.593Z,40.00
2019-01-19T04:52:04.212Z,40.00
2019-01-19T04:54:30.874Z,40.00
2019-01-19T04:56:57.447Z,40.00
2019-01-19T04:59:24.022Z,40.00
2019-01-19T05:01:50.653Z,40.00
2019-01-19T05:04:17.224Z,40.00
2019-01-19T05:06:43.826Z,40.00
2019-01-19T05:09:10.547Z,40.00
2019-01-19T05:11:37.204Z,40.00
2019-01-19T05:14:03.773Z,40.00
2019-01-19T05:16:30.433Z,40.00
2019-01-19T05:18:57.003Z,40.00
2019-01-19T05:21:23.588Z,40.00
2019-01-19T05:23:50.210Z,40.00
2019-01-19T05:26:16.779Z,40.00
2019-01-19T05:28:43.385Z,40.00
2019-01-19T05:31:10.011Z,40.00
2019-01-19T05:33:36.584Z,40.00
2019-01-19T05:36:03.159Z,40.00
2019-01-19T05:38:29.816Z,40.00
2019-01-19T05:40:56.395Z,40.00
2019-01-19T05:43:22.996Z,40.00
2019-01-19T05:45:49.603Z,40.00
2019-01-19T05:48:16.181Z,40.00
2019-01-19T05:50:42.762Z,40.00
2019-01-19T05:53:09.419Z,40.00
2019-01-19T05:55:36.031Z,40.00
2019-01-19T05:58:02.610Z,40.00
2019-01-19T06:00:29.334Z,40.00
2019-01-19T06:02:55.916Z,40.00
2019-01-19T06:05:22.492Z,39.90
2019-01-19T06:07:49.122Z,40.00
2019-01-19T06:10:15.693Z,40.00
2019-01-19T06:12:42.276Z,40.00
2019-01-19T06:15:08.889Z,40.00
2019-01-19T06:17:35.465Z,39.90
2019-01-19T06:20:02.081Z,39.90
2019-01-19T06:22:28.781Z,39.90
2019-01-19T06:24:55.359Z,40.00
2019-01-19T06:27:21.947Z,39.90
2019-01-19T06:29:48.567Z,39.90
2019-01-19T06:32:15.147Z,39.90
2019-01-19T06:34:41.719Z,39.90
2019-01-19T06:37:08.334Z,39.90
2019-01-19T06:39:34.911Z,39.90
2019-01-19T06:42:01.491Z,39.90
2019-01-19T06:44:28.151Z,40.00
2019-01-19T06:46:55.102Z,40.00
2019-01-19T06:49:21.669Z,40.00
2019-01-19T06:51:48.301Z,40.00
2019-01-19T06:54:14.885Z,40.00
2019-01-19T06:56:41.471Z,40.00
2019-01-19T06:59:08.113Z,40.00
2019-01-19T07:01:34.695Z,40.00
2019-01-19T07:04:01.292Z,40.00
2019-01-19T07:06:28.157Z,40.00
2019-01-19T07:08:54.818Z,40.00
2019-01-19T07:11:21.399Z,40.00
2019-01-19T07:13:48.025Z,40.00
2019-01-19T07:16:14.619Z,40.00
2019-01-19T07:18:41.309Z,40.00
2019-01-19T07:21:07.934Z,40.00
2019-01-19T07:23:34.524Z,40.00
2019-01-19T07:26:01.110Z,40.00
2019-01-19T07:28:27.995Z,40.00
2019-01-19T07:30:54.848Z,40.00
2019-01-19T07:33:21.423Z,40.10
2019-01-19T07:35:48.048Z,40.10
2019-01-19T07:38:14.627Z,40.10
2019-01-19T07:40:41.217Z,40.10
2019-01-19T07:43:07.851Z,40.10
2019-01-19T07:45:34.428Z,40.10
2019-01-19T07:48:01.007Z,40.10
2019-01-19T07:50:27.749Z,40.10
2019-01-19T07:52:54.318Z,40.10
2019-01-19T07:55:20.895Z,40.10
2019-01-19T07:57:47.532Z,40.10
2019-01-19T08:00:14.107Z,40.10
2019-01-19T08:02:40.700Z,40.10
2019-01-19T08:05:07.370Z,40.10
2019-01-19T08:07:33.970Z,40.20
2019-01-19T08:10:00.556Z,40.20
2019-01-19T08:12:27.207Z,40.10
2019-01-19T08:14:53.901Z,40.20
2019-01-19T08:17:20.522Z,40.20
2019-01-19T08:19:47.142Z,40.20
2019-01-19T08:22:13.716Z,40.20
2019-01-19T08:24:40.291Z,40.20
2019-01-19T08:27:06.958Z,40.20
2019-01-19T08:29:33.567Z,40.30
2019-01-19T08:32:01.337Z,40.30
2019-01-19T08:34:27.995Z,40.30
2019-01-19T08:36:54.592Z,40.30
2019-01-19T08:39:21.172Z,40.30
2019-01-19T08:41:47.798Z,40.40
2019-01-19T08:44:14.370Z,40.30
2019-01-19T08:46:40.958Z,40.40
2019-01-19T08:49:07.572Z,40.40
2019-01-19T08:51:34.169Z,40.40
2019-01-19T08:54:00.785Z,40.40
2019-01-19T08:56:27.432Z,40.50
2019-01-19T08:58:54.006Z,40.60
2019-01-19T09:01:20.592Z,40.60
2019-01-19T09:03:47.244Z,40.60
2019-01-19T09:06:13.820Z,40.70
2019-01-19T09:08:40.428Z,40.70
2019-01-19T09:11:07.057Z,40.80
2019-01-19T09:13:33.684Z,40.80
2019-01-19T09:16:00.280Z,40.80
2019-01-19T09:18:26.953Z,40.90
2019-01-19T09:20:53.598Z,40.90
2019-01-19T09:23:20.167Z,40.90
2019-01-19T09:25:46.843Z,41.00
2019-01-19T09:28:13.426Z,41.00
2019-01-19T09:30:39.993Z,41.00
2019-01-19T09:33:06.618Z,41.10
2019-01-19T09:35:33.200Z,41.10
2019-01-19T09:37:59.763Z,41.10
2019-01-19T09:40:26.463Z,41.10
2019-01-19T09:42:53.042Z,41.10
2019-01-19T09:45:19.611Z,41.20
2019-01-19T09:47:46.233Z,41.20
2019-01-19T09:50:12.820Z,41.30
2019-01-19T09:52:39.397Z,41.40
2019-01-19T09:55:06.036Z,41.40
2019-01-19T09:57:32.640Z,41.40
2019-01-19T09:59:59.211Z,41.40
2019-01-19T10:02:25.899Z,41.50
2019-01-19T10:04:52.479Z,41.60
2019-01-19T10:07:21.355Z,41.60
2019-01-19T10:09:49.028Z,41.70
2019-01-19T10:12:15.647Z,41.70
2019-01-19T10:14:42.220Z,41.80
2019-01-19T10:17:11.580Z,41.90
2019-01-19T10:19:38.232Z,42.00
2019-01-19T10:22:04.804Z,42.00
2019-01-19T10:24:31.784Z,42.10
2019-01-19T10:26:58.355Z,42.10
2019-01-19T10:29:24.930Z,42.20
2019-01-19T10:31:51.574Z,42.20
2019-01-19T10:34:18.154Z,42.30
2019-01-19T10:36:44.730Z,42.30
2019-01-19T10:39:11.353Z,42.40
2019-01-19T10:41:41.099Z,42.50
2019-01-19T10:44:06.237Z,42.50
2019-01-19T10:46:32.886Z,42.50
2019-01-19T10:49:00.197Z,42.60
2019-01-19T10:51:27.116Z,42.60
2019-01-19T10:53:53.758Z,42.70
2019-01-19T10:56:20.337Z,42.80
2019-01-19T10:58:46.911Z,42.80
2019-01-19T11:01:13.618Z,42.80
2019-01-19T11:03:40.199Z,42.90
2019-01-19T11:06:06.794Z,42.90
2019-01-19T11:08:33.527Z,43.00
2019-01-19T11:11:00.149Z,43.10
2019-01-19T11:13:26.730Z,43.10
2019-01-19T11:15:53.370Z,43.20
2019-01-19T11:18:20.016Z,43.30
2019-01-19T11:20:46.719Z,43.40
2019-01-19T11:23:13.923Z,43.50
2019-01-19T11:25:40.494Z,43.50
2019-01-19T11:28:07.786Z,43.60
2019-01-19T11:30:34.746Z,43.60
2019-01-19T11:33:01.351Z,43.70
2019-01-19T11:35:27.932Z,43.80
2019-01-19T11:37:54.595Z,43.90
2019-01-19T11:40:21.189Z,44.10
2019-01-19T11:42:47.767Z,44.10
2019-01-19T11:45:15.423Z,44.20
2019-01-19T11:47:42.075Z,44.30
2019-01-19T11:50:08.686Z,44.40
2019-01-19T11:52:35.583Z,44.50
2019-01-19T11:55:02.161Z,44.50
2019-01-19T11:57:28.746Z,44.70
2019-01-19T11:59:55.385Z,44.70
2019-01-19T12:02:21.968Z,44.90
2019-01-19T12:04:48.549Z,44.90
2019-01-19T12:07:15.173Z,44.90
2019-01-19T12:09:41.748Z,45.00
2019-01-19T12:12:08.380Z,45.00
2019-01-19T12:14:35.109Z,45.10
2019-01-19T12:17:01.688Z,45.10
2019-01-19T12:19:28.285Z,45.10
2019-01-19T12:21:54.932Z,45.10
2019-01-19T12:24:21.505Z,45.20
2019-01-19T12:26:48.102Z,45.20
2019-01-19T12:29:14.754Z,45.30
2019-01-19T12:31:41.325Z,45.30
2019-01-19T12:34:07.916Z,45.30
2019-01-19T12:36:34.581Z,45.40
2019-01-19T12:39:01.165Z,45.40
2019-01-19T12:41:27.728Z,45.50
2019-01-19T12:43:54.363Z,45.40
2019-01-19T12:46:20.943Z,45.50
2019-01-19T12:48:47.594Z,45.50
2019-01-19T12:51:14.230Z,45.50
2019-01-19T12:53:40.804Z,45.50
2019-01-19T12:56:07.458Z,45.50
2019-01-19T12:58:34.311Z,45.50
2019-01-19T13:01:00.932Z,45.50
2019-01-19T13:03:27.501Z,45.50
2019-01-19T13:05:54.137Z,45.50
2019-01-19T13:08:20.716Z,45.50
2019-01-19T13:10:47.321Z,45.50
2019-01-19T13:13:13.944Z,45.50
2019-01-19T13:15:40.505Z,45.50
2019-01-19T13:18:07.090Z,45.50
2019-01-19T13:20:33.728Z,45.50
2019-01-19T13:23:00.307Z,45.40
2019-01-19T13:25:26.871Z,45.40
2019-01-19T13:27:53.493Z,45.30
2019-01-19T13:30:20.076Z,45.30
2019-01-19T13:32:46.729Z,45.20
2019-01-19T13:35:13.353Z,45.10
2019-01-19T13:37:39.924Z,45.10
2019-01-19T13:40:06.500Z,45.10
2019-01-19T13:42:33.181Z,45.10
2019-01-19T13:44:59.803Z,45.10
2019-01-19T13:47:26.405Z,45.10
2019-01-19T13:49:53.021Z,45.10
2019-01-19T13:52:19.605Z,45.10
2019-01-19T13:54:46.184Z,45.10
2019-01-19T13:57:12.817Z,45.10
2019-01-19T13:59:39.401Z,45.00
2019-01-19T14:02:05.962Z,44.90
2019-01-19T14:04:32.596Z,44.90
2019-01-19T14:06:59.180Z,44.90
2019-01-19T14:09:25.763Z,44.80
2019-01-19T14:11:52.503Z,44.70
2019-01-19T14:14:19.085Z,44.60
2019-01-19T14:16:45.655Z,44.50
2019-01-19T14:19:12.292Z,44.40
2019-01-19T14:21:38.866Z,44.30
2019-01-19T14:24:05.441Z,44.20
2019-01-19T14:26:32.068Z,44.20
2019-01-19T14:28:58.642Z,44.20
2019-01-19T14:31:25.261Z,44.10
2019-01-19T14:33:51.930Z,44.10
2019-01-19T14:36:18.500Z,44.10
2019-01-19T14:38:45.077Z,44.00
2019-01-19T14:41:11.698Z,43.90
2019-01-19T14:43:38.275Z,43.90
2019-01-19T14:46:04.853Z,43.80
2019-01-19T14:48:31.556Z,43.80
2019-01-19T14:50:58.132Z,43.70
2019-01-19T14:53:24.709Z,43.60
2019-01-19T14:55:51.355Z,43.60
2019-01-19T14:58:18.048Z,43.50
2019-01-19T15:00:44.622Z,43.40
2019-01-19T15:03:11.254Z,43.40
2019-01-19T15:05:38.059Z,43.30
2019-01-19T15:08:04.651Z,43.20
2019-01-19T15:10:31.286Z,43.20
2019-01-19T15:12:57.857Z,43.10
2019-01-19T15:15:24.427Z,43.10
2019-01-19T15:17:51.143Z,43.00
2019-01-19T15:20:17.730Z,43.00
2019-01-19T15:22:44.342Z,42.90
2019-01-19T15:25:11.021Z,42.90
2019-01-19T15:27:38.257Z,42.80
2019-01-19T15:30:04.857Z,42.80
2019-01-19T15:32:31.476Z,42.70
2019-01-19T15:34:58.050Z,42.70
2019-01-19T15:37:24.646Z,42.70
2019-01-19T15:39:51.527Z,42.60
2019-01-19T15:42:18.160Z,42.60
2019-01-19T15:44:44.747Z,42.50
2019-01-19T15:47:11.372Z,42.50
2019-01-19T15:49:37.950Z,42.50
2019-01-19T15:52:04.524Z,42.40
2019-01-19T15:54:31.146Z,42.40
2019-01-19T15:56:57.724Z,42.30
2019-01-19T15:59:24.299Z,42.30
2019-01-19T16:01:50.956Z,42.30
2019-01-19T16:04:17.536Z,42.20
2019-01-19T16:06:44.110Z,42.20
2019-01-19T16:09:18.042Z,42.20
2019-01-19T16:11:39.314Z,42.10
2019-01-19T16:14:05.942Z,42.10
2019-01-19T16:16:32.564Z,42.10
2019-01-19T16:18:59.139Z,42.00
2019-01-19T16:21:25.982Z,42.00
2019-01-19T16:23:52.642Z,42.00
2019-01-19T16:26:19.269Z,42.00
2019-01-19T16:28:45.842Z,41.90
2019-01-19T16:31:12.508Z,41.90
2019-01-19T16:33:39.088Z,41.80
2019-01-19T16:36:05.671Z,41.80
2019-01-19T16:38:32.357Z,41.80
2019-01-19T16:40:59.055Z,41.70
2019-01-19T16:43:25.672Z,41.70
2019-01-19T16:45:52.289Z,41.70
2019-01-19T16:48:18.873Z,41.70
2019-01-19T16:50:45.490Z,41.60
2019-01-19T16:53:13.428Z,41.60
2019-01-19T16:55:40.010Z,41.60
2019-01-19T16:58:06.599Z,41.50
2019-01-19T17:00:33.725Z,41.50
2019-01-19T17:03:00.950Z,41.50
2019-01-19T17:05:27.800Z,41.50
2019-01-19T17:07:55.102Z,41.50
2019-01-19T17:10:21.675Z,41.40
2019-01-19T17:12:48.807Z,41.40
2019-01-19T17:15:15.623Z,41.30
2019-01-19T17:17:42.202Z,41.30
2019-01-19T17:20:08.773Z,41.30
2019-01-19T17:22:35.402Z,41.30
2019-01-19T17:25:02.004Z,41.30
2019-01-19T17:27:28.641Z,41.30
2019-01-19T17:29:55.278Z,41.30
2019-01-19T17:32:21.855Z,41.20
2019-01-19T17:34:48.431Z,41.20
2019-01-19T17:37:15.408Z,41.20
2019-01-19T17:39:41.992Z,41.20
2019-01-19T17:42:08.570Z,41.20
2019-01-19T17:44:35.211Z,41.20
2019-01-19T17:47:01.805Z,41.20
2019-01-19T17:49:28.416Z,41.10
2019-01-19T17:51:55.045Z,41.10
2019-01-19T17:54:21.626Z,41.10
2019-01-19T17:56:48.204Z,41.00
2019-01-19T17:59:14.886Z,41.00
2019-01-19T18:01:41.471Z,41.00
2019-01-19T18:04:08.054Z,41.00
2019-01-19T18:06:34.733Z,41.00
2019-01-19T18:09:01.354Z,41.00
2019-01-19T18:11:27.939Z,41.00
2019-01-19T18:13:54.568Z,41.00
2019-01-19T18:16:21.153Z,40.90
2019-01-19T18:18:47.740Z,40.90
2019-01-19T18:21:14.559Z,40.90
2019-01-19T18:23:41.136Z,40.90
2019-01-19T18:26:07.718Z,40.90
2019-01-19T18:28:34.386Z,40.90
2019-01-19T18:31:01.015Z,40.90
2019-01-19T18:33:27.579Z,40.80
2019-01-19T18:35:54.198Z,40.80
2019-01-19T18:38:20.782Z,40.80
2019-01-19T18:40:49.856Z,40.80
2019-01-19T18:43:16.566Z,40.80
2019-01-19T18:45:43.154Z,40.80
2019-01-19T18:48:09.734Z,40.80
2019-01-19T18:50:36.424Z,40.80
2019-01-19T18:53:03.052Z,40.80
2019-01-19T18:55:29.633Z,40.70
2019-01-19T18:57:56.263Z,40.70
2019-01-19T19:00:22.834Z,40.70
2019-01-19T19:02:49.418Z,40.70
2019-01-19T19:05:16.086Z,40.70
2019-01-19T19:07:42.655Z,40.70
2019-01-19T19:10:09.229Z,40.70
2019-01-19T19:12:35.879Z,40.70
2019-01-19T19:15:02.519Z,40.60
2019-01-19T19:17:29.087Z,40.70
2019-01-19T19:19:55.703Z,40.70
2019-01-19T19:22:23.599Z,40.70
2019-01-19T19:24:51.480Z,40.60
2019-01-19T19:27:19.503Z,40.60
2019-01-19T19:29:47.121Z,40.60
2019-01-19T19:32:24.799Z,40.60
2019-01-19T19:34:53.116Z,40.60
2019-01-19T19:37:21.027Z,40.60
2019-01-19T19:39:49.381Z,40.60
2019-01-19T19:42:17.547Z,40.60
2019-01-19T19:44:48.572Z,40.60
2019-01-19T19:47:16.633Z,40.60
2019-01-19T19:49:45.387Z,40.60
2019-01-19T19:52:13.865Z,40.50
2019-01-19T19:54:42.102Z,40.50
2019-01-19T19:57:13.435Z,40.50
2019-01-19T19:59:41.758Z,40.50
2019-01-19T20:02:16.242Z,40.50
2019-01-19T20:04:41.055Z,40.50
2019-01-19T20:07:09.814Z,40.50
2019-01-19T20:09:39.203Z,40.50
2019-01-19T20:12:08.016Z,40.50
2019-01-19T20:14:36.711Z,40.40
2019-01-19T20:17:04.964Z,40.40
2019-01-19T20:19:34.184Z,40.40
2019-01-19T20:22:02.704Z,40.40
2019-01-19T20:24:30.686Z,40.40
2019-01-19T20:26:59.052Z,40.40
2019-01-19T20:29:27.107Z,40.40
2019-01-19T20:31:55.200Z,40.40
2019-01-19T20:34:26.070Z,40.40
2019-01-19T20:36:53.872Z,40.40
2019-01-19T20:39:21.826Z,40.40
2019-01-19T20:41:50.351Z,40.30
2019-01-19T20:44:18.855Z,40.30
2019-01-19T20:46:51.619Z,40.40
2019-01-19T20:49:20.187Z,40.30
2019-01-19T20:51:48.212Z,40.30
2019-01-19T20:54:16.066Z,40.30
2019-01-19T20:56:43.900Z,40.30
2019-01-19T20:59:12.039Z,40.30
2019-01-19T21:01:40.385Z,40.20
2019-01-19T21:04:07.305Z,40.30
2019-01-19T21:06:33.880Z,40.20
2019-01-19T21:09:00.465Z,40.20
2019-01-19T21:11:27.090Z,40.20
2019-01-19T21:13:53.667Z,40.20
2019-01-19T21:16:20.276Z,40.30
2019-01-19T21:18:46.901Z,40.30
2019-01-19T21:21:13.555Z,40.30
2019-01-19T21:23:40.132Z,40.30
2019-01-19T21:26:06.753Z,40.40
2019-01-19T21:28:33.345Z,40.40
2019-01-19T21:30:59.937Z,40.40
2019-01-19T21:33:26.555Z,40.40
2019-01-19T21:35:53.153Z,40.40
2019-01-19T21:38:19.732Z,40.40
2019-01-19T21:40:46.361Z,40.40
2019-01-19T21:43:17.479Z,40.40
2019-01-19T21:45:45.232Z,40.40
2019-01-19T21:48:13.607Z,40.40
2019-01-19T21:50:41.305Z,40.40
2019-01-19T21:53:09.163Z,40.40
2019-01-19T21:55:38.840Z,40.40
2019-01-19T21:58:06.420Z,40.40
2019-01-19T22:03:37.892Z,40.40
2019-01-19T22:06:05.600Z,40.40
2019-01-19T22:08:32.943Z,40.40
2019-01-19T22:11:00.283Z,40.40
2019-01-19T22:13:27.634Z,40.40
2019-01-19T22:15:55.579Z,40.40
2019-01-19T22:18:23.653Z,40.40
2019-01-19T22:20:51.083Z,40.40
2019-01-19T22:23:18.921Z,40.40
2019-01-19T22:25:47.014Z,40.40
2019-01-19T22:28:18.085Z,40.40
2019-01-19T22:30:46.526Z,40.40
2019-01-19T22:33:14.356Z,40.40
2019-01-19T22:35:43.915Z,40.30
2019-01-19T22:38:13.225Z,40.40
2019-01-19T22:40:40.945Z,40.40
2019-01-19T22:43:08.503Z,40.30
2019-01-19T22:45:36.501Z,40.30
2019-01-19T22:48:03.952Z,40.40
2019-01-19T22:50:31.968Z,40.30
2019-01-19T22:53:01.064Z,40.30
2019-01-19T22:55:29.019Z,40.30
2019-01-19T22:58:02.599Z,40.30
2019-01-19T23:00:33.171Z,40.30
2019-01-19T23:03:00.771Z,40.30
2019-01-19T23:05:29.692Z,40.30
2019-01-19T23:07:57.704Z,40.30
2019-01-19T23:10:33.525Z,40.30
2019-01-19T23:12:57.032Z,40.30
2019-01-19T23:15:24.620Z,40.30
2019-01-19T23:17:53.882Z,40.30
2019-01-19T23:20:21.245Z,40.30
2019-01-19T23:22:55.214Z,40.30
2019-01-19T23:25:23.364Z,40.30
2019-01-19T23:27:50.884Z,40.30
2019-01-19T23:30:18.429Z,40.30
2019-01-19T23:32:45.045Z,40.30
2019-01-19T23:35:11.691Z,40.20
2019-01-19T23:37:38.402Z,40.20
2019-01-19T23:40:05.000Z,40.20
2019-01-19T23:42:31.589Z,40.20
2019-01-19T23:44:58.224Z,40.30
2019-01-19T23:47:24.801Z,40.20
2019-01-19T23:49:51.385Z,40.20
2019-01-19T23:52:18.008Z,40.20
2019-01-19T23:54:44.604Z,40.20
2019-01-19T23:57:11.183Z,40.20
2019-01-19T23:59:37.887Z,40.20
